Time;durP1;ratioP1;P1;durP2;ratioP2;P2;SDS_P1;SDS_P2;PMS_P1;PMS_P2;Temp;Humidity;BMP_temperature;BMP_pressure;BME280_temperature;BME280_humidity;BME280_pressure;Samples;Min_cycle;Max_cycle;Signal;HPM_P1;HPM_P2
2021/11/09 00:05:14;;;;;;;2.22;0.70;;;15.70;60.20;;;;;;20742361;28;20117;-82
2021/11/09 00:15:19;;;;;;;2.47;0.90;;;15.70;60.30;;;;;;20727017;28;20052;-78
2021/11/09 00:25:20;;;;;;;2.08;0.75;;;15.70;60.30;;;;;;20740820;28;20030;-78
2021/11/09 00:35:24;;;;;;;1.85;0.60;;;15.70;60.30;;;;;;20707972;28;20381;-77
2021/11/09 00:45:25;;;;;;;2.13;0.75;;;15.70;60.40;;;;;;20738736;28;20065;-78
2021/11/09 00:55:26;;;;;;;2.03;0.80;;;15.70;60.40;;;;;;20721309;28;20049;-77
2021/11/09 01:05:27;;;;;;;1.55;0.60;;;15.60;60.40;;;;;;20705418;28;20038;-78
2021/11/09 01:15:28;;;;;;;1.40;0.73;;;15.60;60.50;;;;;;20687919;28;20044;-78
2021/11/09 01:25:28;;;;;;;1.27;0.70;;;15.60;60.50;;;;;;20719886;28;20038;-79
2021/11/09 01:35:30;;;;;;;2.53;0.90;;;15.60;60.60;;;;;;20703350;28;20175;-77
2021/11/09 01:45:31;;;;;;;3.15;0.82;;;15.60;60.60;;;;;;20702197;28;20289;-78
2021/11/09 01:55:32;;;;;;;1.50;0.63;;;15.60;60.60;;;;;;20700900;28;20124;-79
2021/11/09 02:05:33;;;;;;;4.53;1.77;;;15.60;60.70;;;;;;20731645;28;20500;-78
2021/11/09 02:15:35;;;;;;;3.80;1.07;;;15.60;60.80;;;;;;20748568;28;20087;-78
2021/11/09 02:25:36;;;;;;;4.22;0.85;;;15.60;60.80;;;;;;20731821;28;20834;-78
2021/11/09 02:35:37;;;;;;;1.05;0.68;;;15.60;60.90;;;;;;20730342;28;20050;-79
2021/11/09 02:45:53;;;;;;;3.22;0.93;;;15.50;60.80;;;;;;20729549;28;20096;-79
2021/11/09 02:56:02;;;;;;;1.35;0.75;;;15.50;60.80;;;;;;20714971;28;20534;-79
2021/11/09 03:16:39;;;;;;;1.73;0.70;;;15.50;60.90;;;;;;21147758;27;20738;-77
2021/11/09 03:47:20;;;;;;;1.25;0.70;;;15.50;61.20;;;;;;21131276;28;20079;-77
2021/11/09 03:57:30;;;;;;;2.90;1.10;;;15.50;61.10;;;;;;21111066;28;20361;-77
2021/11/09 04:17:52;;;;;;;3.38;1.05;;;15.50;61.20;;;;;;21125357;28;20056;-76
2021/11/09 04:28:03;;;;;;;2.67;0.70;;;15.40;61.20;;;;;;21070860;28;20077;-74
2021/11/09 04:48:46;;;;;;;1.52;0.80;;;15.40;61.30;;;;;;21049698;28;20752;-79
2021/11/09 05:01:11;;;;;;;1.17;0.60;;;15.40;61.30;;;;;;21068624;28;20032;-79
2021/11/09 05:09:24;;;;;;;1.58;0.65;;;15.40;61.30;;;;;;21050458;28;20044;-77
2021/11/09 05:19:25;;;;;;;1.25;0.95;;;15.40;61.40;;;;;;21031554;28;20490;-74
2021/11/09 05:29:25;;;;;;;2.92;0.80;;;15.40;61.50;;;;;;21046589;28;20036;-85
2021/11/09 05:39:55;;;;;;;0.55;0.40;;;15.30;61.50;;;;;;21047825;28;20050;-78
2021/11/09 05:49:56;;;;;;;1.75;0.80;;;15.40;61.60;;;;;;21044742;28;20444;-78
2021/11/09 05:59:56;;;;;;;1.02;0.55;;;15.30;61.60;;;;;;21048172;28;20078;-78
2021/11/09 06:09:57;;;;;;;0.45;0.45;;;15.30;61.70;;;;;;21023535;28;20039;-74
2021/11/09 06:19:57;;;;;;;1.30;0.70;;;15.70;61.00;;;;;;21023472;28;20128;-72
2021/11/09 06:29:58;;;;;;;1.58;0.52;;;17.00;58.20;;;;;;21030158;28;20028;-71
2021/11/09 06:39:59;;;;;;;1.10;0.40;;;18.30;54.80;;;;;;21039460;28;20304;-74
2021/11/09 06:50:00;;;;;;;2.80;0.80;;;19.10;52.50;;;;;;21037984;28;20336;-73
2021/11/09 07:00:00;;;;;;;1.45;0.40;;;19.50;51.30;;;;;;21020563;28;20432;-73
2021/11/09 07:10:02;;;;;;;2.15;0.70;;;19.50;50.80;;;;;;21038004;28;20468;-73
2021/11/09 07:20:03;;;;;;;2.72;0.68;;;19.40;50.90;;;;;;21053345;28;20040;-71
2021/11/09 07:30:05;;;;;;;1.27;0.65;;;18.70;52.00;;;;;;21047348;28;20036;-72
2021/11/09 07:40:06;;;;;;;0.40;0.25;;;17.80;53.80;;;;;;21033605;28;20431;-71
2021/11/09 07:50:07;;;;;;;1.20;0.68;;;17.10;55.40;;;;;;21016954;28;20036;-70
2021/11/09 08:10:41;;;;;;;3.00;0.45;;;16.30;58.40;;;;;;21023597;28;20054;-71
2021/11/09 08:20:42;;;;;;;1.00;0.60;;;16.00;58.60;;;;;;20986334;28;20064;-72
2021/11/09 08:30:42;;;;;;;1.45;0.40;;;15.90;59.10;;;;;;21024366;28;20313;-74
2021/11/09 08:40:44;;;;;;;5.78;0.70;;;15.90;59.40;;;;;;21128824;28;20516;-72
2021/11/09 08:50:48;;;;;;;1.58;0.57;;;15.90;59.40;;;;;;21074117;28;20039;-73
2021/11/09 09:11:02;;;;;;;0.93;0.55;;;16.00;59.40;;;;;;21061597;28;20379;-73
2021/11/09 09:21:11;;;;;;;1.25;0.50;;;16.10;59.40;;;;;;21022521;28;20040;-71
2021/11/09 10:02:06;;;;;;;2.55;0.82;;;16.20;59.30;;;;;;21025286;28;20028;-72
2021/11/09 10:12:21;;;;;;;3.10;0.90;;;16.10;59.30;;;;;;21054521;28;20068;-73
2021/11/09 10:22:30;;;;;;;1.08;0.77;;;16.10;59.30;;;;;;21017264;28;20032;-73
2021/11/09 10:32:31;;;;;;;1.15;0.63;;;16.10;59.30;;;;;;21038042;28;20039;-72
2021/11/09 10:42:37;;;;;;;1.63;0.70;;;16.10;59.40;;;;;;21076876;28;20035;-78
2021/11/09 10:52:39;;;;;;;5.82;0.73;;;16.10;59.40;;;;;;21121602;28;20148;-74
2021/11/09 11:13:21;;;;;;;1.70;0.90;;;16.10;59.60;;;;;;20822127;28;20043;-74
2021/11/09 11:23:22;;;;;;;1.75;1.10;;;16.10;59.70;;;;;;20792158;28;20033;-76
2021/11/09 11:33:23;;;;;;;2.50;0.80;;;16.00;59.70;;;;;;20816985;28;20471;-77
2021/11/09 11:43:42;;;;;;;3.85;1.23;;;16.00;59.70;;;;;;20838811;28;20486;-74
2021/11/09 11:53:44;;;;;;;4.10;0.90;;;16.00;59.80;;;;;;20818715;28;20052;-73
2021/11/09 12:03:45;;;;;;;1.85;0.93;;;16.00;59.90;;;;;;20835500;28;20037;-73
2021/11/09 12:14:03;;;;;;;2.90;0.85;;;16.00;60.00;;;;;;20801624;28;20034;-72
2021/11/09 12:24:08;;;;;;;1.65;0.90;;;15.90;60.00;;;;;;20797964;28;20040;-75
2021/11/09 12:34:09;;;;;;;1.43;0.70;;;15.90;60.10;;;;;;20832990;28;20099;-75
2021/11/09 12:44:10;;;;;;;2.33;0.82;;;15.90;60.20;;;;;;20814377;28;20116;-76
2021/11/09 12:54:23;;;;;;;1.38;1.10;;;15.90;60.10;;;;;;20815267;28;20092;-76
2021/11/09 13:04:33;;;;;;;2.78;1.20;;;15.90;60.10;;;;;;20845802;28;20116;-78
2021/11/09 13:14:44;;;;;;;4.07;1.38;;;15.90;60.10;;;;;;20818646;28;20029;-77
2021/11/09 13:25:07;;;;;;;3.78;1.20;;;15.90;60.10;;;;;;20798182;28;20384;-76
2021/11/09 13:35:30;;;;;;;1.10;0.93;;;15.90;60.10;;;;;;20812338;28;20095;-75
2021/11/09 13:45:31;;;;;;;0.95;0.80;;;15.90;60.10;;;;;;20794359;28;20150;-73
2021/11/09 13:55:36;;;;;;;1.38;0.70;;;15.90;60.10;;;;;;20823495;28;20041;-77
2021/11/09 14:26:23;;;;;;;1.67;0.80;;;15.80;60.20;;;;;;20808789;28;19909;-72
2021/11/09 14:36:33;;;;;;;3.85;1.13;;;15.80;60.30;;;;;;20805270;28;20037;-74
2021/11/09 14:46:39;;;;;;;4.78;1.05;;;15.80;60.30;;;;;;20805262;28;20506;-74
2021/11/09 14:56:40;;;;;;;3.83;0.90;;;15.80;60.40;;;;;;20845346;28;20080;-73
2021/11/09 15:37:34;;;;;;;1.52;0.98;;;15.70;60.60;;;;;;20820364;28;20120;-74
2021/11/09 15:47:35;;;;;;;2.50;1.17;;;16.00;60.30;;;;;;20808102;28;20088;-76
2021/11/09 15:57:36;;;;;;;4.68;1.30;;;16.90;58.30;;;;;;20837361;28;20041;-76
2021/11/09 16:07:40;;;;;;;6.13;1.55;;;17.90;55.70;;;;;;20788299;28;20037;-75
2021/11/09 16:17:41;;;;;;;4.03;1.52;;;18.70;53.80;;;;;;20825513;28;20029;-75
2021/11/09 16:27:43;;;;;;;2.90;1.83;;;19.00;52.70;;;;;;20796136;28;20053;-75
2021/11/09 16:37:44;;;;;;;2.28;1.30;;;19.10;52.20;;;;;;20806042;28;20028;-76
2021/11/09 16:47:45;;;;;;;2.35;1.42;;;18.90;52.10;;;;;;20802602;28;20044;-74
2021/11/09 18:20:21;;;;;;;2.88;1.40;;;15.80;59.50;;;;;;20876198;28;20063;-79
2021/11/09 18:30:24;;;;;;;2.80;1.40;;;15.80;59.50;;;;;;20887176;28;20045;-78
2021/11/09 18:40:26;;;;;;;2.67;1.30;;;15.80;60.10;;;;;;20822039;28;20091;-79
2021/11/09 18:50:30;;;;;;;3.58;1.40;;;15.80;59.30;;;;;;20791570;28;20052;-82
2021/11/09 19:00:31;;;;;;;2.17;1.10;;;15.90;59.50;;;;;;20794521;28;20491;-79
2021/11/09 19:10:32;;;;;;;3.05;1.55;;;15.90;59.10;;;;;;20827366;28;20041;-83
2021/11/09 19:20:34;;;;;;;3.33;1.67;;;15.90;59.00;;;;;;20838932;28;20421;-81
2021/11/09 19:30:37;;;;;;;3.88;1.10;;;16.00;59.00;;;;;;20849749;28;20128;-81
2021/11/09 19:40:38;;;;;;;2.47;1.15;;;15.90;58.90;;;;;;20792564;28;20033;-82
2021/11/09 19:50:42;;;;;;;2.70;1.38;;;15.90;58.80;;;;;;20848227;28;20067;-82
2021/11/09 20:00:46;;;;;;;2.22;1.30;;;15.90;58.80;;;;;;20818014;28;20045;-81
2021/11/09 20:10:49;;;;;;;3.30;1.55;;;15.90;58.70;;;;;;20862278;28;20107;-82
2021/11/09 20:20:52;;;;;;;2.17;1.13;;;15.90;58.70;;;;;;20838908;28;20117;-82
2021/11/09 20:30:57;;;;;;;3.58;1.80;;;15.90;58.70;;;;;;20862966;28;20049;-82
2021/11/09 20:40:58;;;;;;;2.42;1.52;;;15.90;58.70;;;;;;20902792;28;20029;-82
2021/11/09 20:50:59;;;;;;;4.18;1.65;;;15.90;58.60;;;;;;20855100;28;20103;-80
2021/11/09 21:00:59;;;;;;;3.75;1.58;;;15.80;58.50;;;;;;20815654;28;20470;-80
2021/11/09 21:11:00;;;;;;;2.83;1.35;;;15.90;58.50;;;;;;20834074;28;20504;-80
2021/11/09 21:21:06;;;;;;;3.08;1.75;;;15.80;58.40;;;;;;20832632;28;20029;-80
2021/11/09 21:41:25;;;;;;;2.28;1.48;;;15.80;58.20;;;;;;20832262;28;20048;-79
2021/11/09 21:51:26;;;;;;;2.25;1.38;;;15.80;58.20;;;;;;20831232;28;20041;-81
2021/11/09 22:01:27;;;;;;;2.90;1.98;;;15.80;58.20;;;;;;20814652;28;20034;-80
2021/11/09 22:11:28;;;;;;;2.22;1.38;;;15.80;58.10;;;;;;20813228;28;20454;-79
2021/11/09 22:21:30;;;;;;;4.22;1.70;;;15.80;58.00;;;;;;20810988;28;20026;-80
2021/11/09 22:31:31;;;;;;;3.67;2.05;;;15.80;57.90;;;;;;20810850;28;20702;-81
2021/11/09 22:41:32;;;;;;;2.25;1.60;;;15.80;57.90;;;;;;20825618;28;20064;-81
2021/11/09 22:51:32;;;;;;;3.20;1.50;;;15.70;57.80;;;;;;20826942;28;20041;-80
2021/11/09 23:01:36;;;;;;;3.00;1.73;;;15.70;57.70;;;;;;20809436;28;20291;-80
2021/11/09 23:11:37;;;;;;;6.97;1.70;;;15.80;57.70;;;;;;20792567;28;20148;-80
2021/11/09 23:21:37;;;;;;;4.43;1.35;;;15.80;57.60;;;;;;20792013;28;20057;-80
2021/11/09 23:31:38;;;;;;;3.97;1.65;;;15.70;57.50;;;;;;20837894;28;20034;-81
2021/11/09 23:41:39;;;;;;;4.03;1.90;;;15.70;57.40;;;;;;20839030;28;20040;-80
2021/11/09 23:51:40;;;;;;;2.78;1.80;;;15.70;57.30;;;;;;20921964;28;20641;-80
